sensor_id;sensor_type;location;lat;lon;timestamp;P1;durP1;ratioP1;P2;durP2;ratioP2
24261;SDS011;12385;51.412;5.540;2024-02-14T00:01:08;7.68;;;5.13;;
24261;SDS011;12385;51.412;5.540;2024-02-14T00:03:34;10.45;;;5.78;;
24261;SDS011;12385;51.412;5.540;2024-02-14T00:06:00;8.55;;;5.10;;
24261;SDS011;12385;51.412;5.540;2024-02-14T00:08:26;8.68;;;4.85;;
24261;SDS011;12385;51.412;5.540;2024-02-14T00:10:52;9.02;;;5.07;;
24261;SDS011;12385;51.412;5.540;2024-02-14T00:13:19;7.10;;;4.82;;
24261;SDS011;12385;51.412;5.540;2024-02-14T00:15:45;11.90;;;5.70;;
24261;SDS011;12385;51.412;5.540;2024-02-14T00:18:11;13.75;;;5.43;;
24261;SDS011;12385;51.412;5.540;2024-02-14T00:20:37;7.72;;;5.20;;
24261;SDS011;12385;51.412;5.540;2024-02-14T00:23:04;9.80;;;6.07;;
24261;SDS011;12385;51.412;5.540;2024-02-14T00:25:30;10.80;;;5.72;;
24261;SDS011;12385;51.412;5.540;2024-02-14T00:27:55;8.73;;;5.15;;
24261;SDS011;12385;51.412;5.540;2024-02-14T00:30:21;11.02;;;5.00;;
24261;SDS011;12385;51.412;5.540;2024-02-14T00:32:50;9.55;;;5.75;;
24261;SDS011;12385;51.412;5.540;2024-02-14T00:35:15;10.82;;;5.35;;
24261;SDS011;12385;51.412;5.540;2024-02-14T00:37:41;9.00;;;5.40;;
24261;SDS011;12385;51.412;5.540;2024-02-14T00:40:07;10.95;;;5.30;;
24261;SDS011;12385;51.412;5.540;2024-02-14T00:42:33;7.32;;;5.30;;
24261;SDS011;12385;51.412;5.540;2024-02-14T00:44:59;8.77;;;5.07;;
24261;SDS011;12385;51.412;5.540;2024-02-14T00:47:25;10.10;;;5.00;;
24261;SDS011;12385;51.412;5.540;2024-02-14T00:49:51;9.73;;;5.40;;
24261;SDS011;12385;51.412;5.540;2024-02-14T00:52:17;8.73;;;5.28;;
24261;SDS011;12385;51.412;5.540;2024-02-14T00:54:44;7.38;;;5.32;;
24261;SDS011;12385;51.412;5.540;2024-02-14T00:57:10;11.05;;;4.95;;
24261;SDS011;12385;51.412;5.540;2024-02-14T00:59:36;8.82;;;5.30;;
24261;SDS011;12385;51.412;5.540;2024-02-14T01:02:02;7.55;;;5.05;;
24261;SDS011;12385;51.412;5.540;2024-02-14T01:04:28;6.95;;;5.30;;
24261;SDS011;12385;51.412;5.540;2024-02-14T01:06:54;7.13;;;5.07;;
24261;SDS011;12385;51.412;5.540;2024-02-14T01:09:20;10.02;;;5.35;;
24261;SDS011;12385;51.412;5.540;2024-02-14T01:11:46;9.70;;;5.15;;
24261;SDS011;12385;51.412;5.540;2024-02-14T01:14:12;6.45;;;4.65;;
24261;SDS011;12385;51.412;5.540;2024-02-14T01:16:42;8.82;;;5.00;;
24261;SDS011;12385;51.412;5.540;2024-02-14T01:19:09;7.65;;;4.93;;
24261;SDS011;12385;51.412;5.540;2024-02-14T01:21:35;10.07;;;5.07;;
24261;SDS011;12385;51.412;5.540;2024-02-14T01:24:00;8.48;;;4.88;;
24261;SDS011;12385;51.412;5.540;2024-02-14T01:26:26;7.93;;;5.00;;
24261;SDS011;12385;51.412;5.540;2024-02-14T01:28:52;8.55;;;4.68;;
24261;SDS011;12385;51.412;5.540;2024-02-14T01:31:20;9.93;;;5.18;;
24261;SDS011;12385;51.412;5.540;2024-02-14T01:33:45;8.93;;;4.85;;
24261;SDS011;12385;51.412;5.540;2024-02-14T01:36:11;7.78;;;4.95;;
24261;SDS011;12385;51.412;5.540;2024-02-14T01:38:37;7.43;;;4.80;;
24261;SDS011;12385;51.412;5.540;2024-02-14T01:41:03;8.30;;;4.80;;
24261;SDS011;12385;51.412;5.540;2024-02-14T01:43:29;7.53;;;4.70;;
24261;SDS011;12385;51.412;5.540;2024-02-14T01:45:56;9.32;;;4.63;;
24261;SDS011;12385;51.412;5.540;2024-02-14T01:48:31;6.65;;;4.45;;
24261;SDS011;12385;51.412;5.540;2024-02-14T01:50:58;9.48;;;4.57;;
24261;SDS011;12385;51.412;5.540;2024-02-14T01:53:24;8.68;;;5.00;;
24261;SDS011;12385;51.412;5.540;2024-02-14T01:55:51;6.85;;;4.43;;
24261;SDS011;12385;51.412;5.540;2024-02-14T01:58:19;11.27;;;4.68;;
24261;SDS011;12385;51.412;5.540;2024-02-14T02:00:45;9.43;;;5.05;;
24261;SDS011;12385;51.412;5.540;2024-02-14T02:03:11;9.40;;;4.85;;
24261;SDS011;12385;51.412;5.540;2024-02-14T02:05:37;10.00;;;4.50;;
24261;SDS011;12385;51.412;5.540;2024-02-14T02:08:03;9.15;;;5.03;;
24261;SDS011;12385;51.412;5.540;2024-02-14T02:10:29;9.15;;;5.07;;
24261;SDS011;12385;51.412;5.540;2024-02-14T02:12:58;10.30;;;5.25;;
24261;SDS011;12385;51.412;5.540;2024-02-14T02:15:25;9.57;;;5.80;;
24261;SDS011;12385;51.412;5.540;2024-02-14T02:17:51;10.88;;;6.35;;
24261;SDS011;12385;51.412;5.540;2024-02-14T02:20:20;10.45;;;6.15;;
24261;SDS011;12385;51.412;5.540;2024-02-14T02:22:46;13.57;;;6.40;;
24261;SDS011;12385;51.412;5.540;2024-02-14T02:25:15;12.98;;;6.45;;
24261;SDS011;12385;51.412;5.540;2024-02-14T02:27:40;8.65;;;6.28;;
24261;SDS011;12385;51.412;5.540;2024-02-14T02:30:06;10.95;;;6.72;;
24261;SDS011;12385;51.412;5.540;2024-02-14T02:32:38;12.43;;;7.10;;
24261;SDS011;12385;51.412;5.540;2024-02-14T02:35:04;13.18;;;7.47;;
24261;SDS011;12385;51.412;5.540;2024-02-14T02:37:30;11.10;;;7.20;;
24261;SDS011;12385;51.412;5.540;2024-02-14T02:39:56;12.25;;;7.35;;
24261;SDS011;12385;51.412;5.540;2024-02-14T02:42:22;12.70;;;7.28;;
24261;SDS011;12385;51.412;5.540;2024-02-14T02:44:52;12.85;;;7.18;;
24261;SDS011;12385;51.412;5.540;2024-02-14T02:47:19;14.45;;;7.40;;
24261;SDS011;12385;51.412;5.540;2024-02-14T02:49:45;12.07;;;7.30;;
24261;SDS011;12385;51.412;5.540;2024-02-14T02:52:11;12.05;;;7.40;;
24261;SDS011;12385;51.412;5.540;2024-02-14T02:54:37;14.00;;;7.57;;
24261;SDS011;12385;51.412;5.540;2024-02-14T02:57:06;10.60;;;6.93;;
24261;SDS011;12385;51.412;5.540;2024-02-14T02:59:33;14.60;;;7.82;;
24261;SDS011;12385;51.412;5.540;2024-02-14T03:02:00;12.23;;;7.50;;
24261;SDS011;12385;51.412;5.540;2024-02-14T03:04:27;10.70;;;7.15;;
24261;SDS011;12385;51.412;5.540;2024-02-14T03:06:53;12.38;;;7.60;;
24261;SDS011;12385;51.412;5.540;2024-02-14T03:09:20;10.23;;;7.30;;
24261;SDS011;12385;51.412;5.540;2024-02-14T03:11:47;13.40;;;7.35;;
24261;SDS011;12385;51.412;5.540;2024-02-14T03:14:15;13.27;;;7.05;;
24261;SDS011;12385;51.412;5.540;2024-02-14T03:16:40;13.73;;;6.95;;
24261;SDS011;12385;51.412;5.540;2024-02-14T03:19:07;11.82;;;6.82;;
24261;SDS011;12385;51.412;5.540;2024-02-14T03:21:33;11.95;;;7.28;;
24261;SDS011;12385;51.412;5.540;2024-02-14T03:24:00;14.43;;;7.68;;
24261;SDS011;12385;51.412;5.540;2024-02-14T03:26:30;13.60;;;7.32;;
24261;SDS011;12385;51.412;5.540;2024-02-14T03:28:59;16.35;;;7.85;;
24261;SDS011;12385;51.412;5.540;2024-02-14T03:31:25;13.52;;;6.97;;
24261;SDS011;12385;51.412;5.540;2024-02-14T03:33:51;13.23;;;6.50;;
24261;SDS011;12385;51.412;5.540;2024-02-14T03:36:20;9.45;;;6.00;;
24261;SDS011;12385;51.412;5.540;2024-02-14T03:38:45;11.23;;;6.85;;
24261;SDS011;12385;51.412;5.540;2024-02-14T03:41:11;13.30;;;6.40;;
24261;SDS011;12385;51.412;5.540;2024-02-14T03:43:38;10.38;;;6.20;;
24261;SDS011;12385;51.412;5.540;2024-02-14T03:46:04;14.07;;;6.90;;
24261;SDS011;12385;51.412;5.540;2024-02-14T03:48:31;10.40;;;6.53;;
24261;SDS011;12385;51.412;5.540;2024-02-14T03:50:57;9.98;;;6.30;;
24261;SDS011;12385;51.412;5.540;2024-02-14T03:53:23;9.55;;;6.68;;
24261;SDS011;12385;51.412;5.540;2024-02-14T03:55:50;11.65;;;6.90;;
24261;SDS011;12385;51.412;5.540;2024-02-14T03:58:19;14.43;;;7.60;;
24261;SDS011;12385;51.412;5.540;2024-02-14T04:03:16;9.02;;;6.75;;
24261;SDS011;12385;51.412;5.540;2024-02-14T04:05:42;10.90;;;6.50;;
24261;SDS011;12385;51.412;5.540;2024-02-14T04:08:08;10.85;;;7.18;;
24261;SDS011;12385;51.412;5.540;2024-02-14T04:10:35;11.60;;;7.05;;
24261;SDS011;12385;51.412;5.540;2024-02-14T04:13:03;12.13;;;7.03;;
24261;SDS011;12385;51.412;5.540;2024-02-14T04:15:30;10.40;;;7.13;;
24261;SDS011;12385;51.412;5.540;2024-02-14T04:17:56;13.30;;;7.15;;
24261;SDS011;12385;51.412;5.540;2024-02-14T04:20:23;10.93;;;6.85;;
24261;SDS011;12385;51.412;5.540;2024-02-14T04:22:50;13.25;;;6.60;;
24261;SDS011;12385;51.412;5.540;2024-02-14T04:25:15;12.25;;;6.20;;
24261;SDS011;12385;51.412;5.540;2024-02-14T04:27:41;10.38;;;5.93;;
24261;SDS011;12385;51.412;5.540;2024-02-14T04:30:07;9.02;;;5.13;;
24261;SDS011;12385;51.412;5.540;2024-02-14T04:32:33;7.50;;;5.45;;
24261;SDS011;12385;51.412;5.540;2024-02-14T04:34:59;12.85;;;6.00;;
24261;SDS011;12385;51.412;5.540;2024-02-14T04:37:24;10.50;;;5.80;;
24261;SDS011;12385;51.412;5.540;2024-02-14T04:39:50;9.15;;;5.80;;
24261;SDS011;12385;51.412;5.540;2024-02-14T04:42:16;7.50;;;5.50;;
24261;SDS011;12385;51.412;5.540;2024-02-14T04:44:41;8.65;;;5.90;;
24261;SDS011;12385;51.412;5.540;2024-02-14T04:47:07;9.07;;;5.80;;
24261;SDS011;12385;51.412;5.540;2024-02-14T04:49:34;11.32;;;6.45;;
24261;SDS011;12385;51.412;5.540;2024-02-14T04:52:02;11.25;;;6.07;;
24261;SDS011;12385;51.412;5.540;2024-02-14T04:54:27;9.88;;;6.65;;
24261;SDS011;12385;51.412;5.540;2024-02-14T04:56:53;10.27;;;7.57;;
24261;SDS011;12385;51.412;5.540;2024-02-14T04:59:19;12.05;;;7.95;;
24261;SDS011;12385;51.412;5.540;2024-02-14T05:01:45;14.20;;;8.38;;
24261;SDS011;12385;51.412;5.540;2024-02-14T05:04:12;15.00;;;8.82;;
24261;SDS011;12385;51.412;5.540;2024-02-14T05:06:41;13.02;;;8.75;;
24261;SDS011;12385;51.412;5.540;2024-02-14T05:09:07;13.98;;;8.32;;
24261;SDS011;12385;51.412;5.540;2024-02-14T05:11:36;15.85;;;9.13;;
24261;SDS011;12385;51.412;5.540;2024-02-14T05:14:02;11.98;;;8.95;;
24261;SDS011;12385;51.412;5.540;2024-02-14T05:16:28;18.80;;;8.80;;
24261;SDS011;12385;51.412;5.540;2024-02-14T05:18:54;15.75;;;8.90;;
24261;SDS011;12385;51.412;5.540;2024-02-14T05:21:20;15.93;;;8.98;;
24261;SDS011;12385;51.412;5.540;2024-02-14T05:23:46;18.75;;;9.63;;
24261;SDS011;12385;51.412;5.540;2024-02-14T05:26:15;13.13;;;9.07;;
24261;SDS011;12385;51.412;5.540;2024-02-14T05:28:41;15.63;;;9.05;;
24261;SDS011;12385;51.412;5.540;2024-02-14T05:31:07;12.23;;;9.10;;
24261;SDS011;12385;51.412;5.540;2024-02-14T05:33:32;14.63;;;8.65;;
24261;SDS011;12385;51.412;5.540;2024-02-14T05:35:58;13.05;;;9.10;;
24261;SDS011;12385;51.412;5.540;2024-02-14T05:38:24;12.52;;;9.55;;
24261;SDS011;12385;51.412;5.540;2024-02-14T05:40:50;14.90;;;10.95;;
24261;SDS011;12385;51.412;5.540;2024-02-14T05:43:16;17.65;;;11.82;;
24261;SDS011;12385;51.412;5.540;2024-02-14T05:45:46;15.38;;;11.55;;
24261;SDS011;12385;51.412;5.540;2024-02-14T05:48:12;15.68;;;11.90;;
24261;SDS011;12385;51.412;5.540;2024-02-14T05:50:37;16.55;;;12.38;;
24261;SDS011;12385;51.412;5.540;2024-02-14T05:53:04;17.38;;;12.15;;
24261;SDS011;12385;51.412;5.540;2024-02-14T05:55:29;22.58;;;14.90;;
24261;SDS011;12385;51.412;5.540;2024-02-14T05:57:55;18.15;;;14.57;;
24261;SDS011;12385;51.412;5.540;2024-02-14T06:00:22;25.10;;;15.75;;
24261;SDS011;12385;51.412;5.540;2024-02-14T06:02:50;23.70;;;16.50;;
24261;SDS011;12385;51.412;5.540;2024-02-14T06:05:16;22.20;;;17.10;;
24261;SDS011;12385;51.412;5.540;2024-02-14T06:07:42;25.33;;;19.48;;
24261;SDS011;12385;51.412;5.540;2024-02-14T06:10:10;25.30;;;17.88;;
24261;SDS011;12385;51.412;5.540;2024-02-14T06:12:36;22.65;;;17.17;;
24261;SDS011;12385;51.412;5.540;2024-02-14T06:15:02;26.30;;;18.35;;
24261;SDS011;12385;51.412;5.540;2024-02-14T06:17:28;25.90;;;18.20;;
24261;SDS011;12385;51.412;5.540;2024-02-14T06:19:54;27.25;;;18.70;;
24261;SDS011;12385;51.412;5.540;2024-02-14T06:22:20;27.45;;;18.77;;
24261;SDS011;12385;51.412;5.540;2024-02-14T06:24:46;28.10;;;18.30;;
24261;SDS011;12385;51.412;5.540;2024-02-14T06:27:15;24.75;;;17.65;;
24261;SDS011;12385;51.412;5.540;2024-02-14T06:29:47;24.10;;;18.67;;
24261;SDS011;12385;51.412;5.540;2024-02-14T06:32:15;25.75;;;18.30;;
24261;SDS011;12385;51.412;5.540;2024-02-14T06:34:41;24.15;;;17.27;;
24261;SDS011;12385;51.412;5.540;2024-02-14T06:37:07;21.98;;;15.82;;
24261;SDS011;12385;51.412;5.540;2024-02-14T06:39:32;28.67;;;16.38;;
24261;SDS011;12385;51.412;5.540;2024-02-14T06:41:58;26.63;;;16.02;;
24261;SDS011;12385;51.412;5.540;2024-02-14T06:44:24;21.08;;;15.63;;
24261;SDS011;12385;51.412;5.540;2024-02-14T06:46:50;21.38;;;15.02;;
24261;SDS011;12385;51.412;5.540;2024-02-14T06:49:16;20.80;;;15.75;;
24261;SDS011;12385;51.412;5.540;2024-02-14T06:51:41;23.15;;;15.82;;
24261;SDS011;12385;51.412;5.540;2024-02-14T06:54:07;24.05;;;16.17;;
24261;SDS011;12385;51.412;5.540;2024-02-14T06:56:33;22.80;;;15.95;;
24261;SDS011;12385;51.412;5.540;2024-02-14T06:58:59;24.65;;;16.73;;
24261;SDS011;12385;51.412;5.540;2024-02-14T07:01:28;21.88;;;16.73;;
24261;SDS011;12385;51.412;5.540;2024-02-14T07:03:54;29.92;;;17.42;;
24261;SDS011;12385;51.412;5.540;2024-02-14T07:06:20;31.85;;;18.38;;
24261;SDS011;12385;51.412;5.540;2024-02-14T07:08:46;31.42;;;19.67;;
24261;SDS011;12385;51.412;5.540;2024-02-14T07:11:12;29.45;;;19.85;;
24261;SDS011;12385;51.412;5.540;2024-02-14T07:13:38;31.52;;;21.35;;
24261;SDS011;12385;51.412;5.540;2024-02-14T07:16:04;32.33;;;21.38;;
24261;SDS011;12385;51.412;5.540;2024-02-14T07:18:30;32.03;;;22.08;;
24261;SDS011;12385;51.412;5.540;2024-02-14T07:20:55;35.22;;;22.25;;
24261;SDS011;12385;51.412;5.540;2024-02-14T07:23:21;28.80;;;22.33;;
24261;SDS011;12385;51.412;5.540;2024-02-14T07:25:47;37.10;;;21.83;;
24261;SDS011;12385;51.412;5.540;2024-02-14T07:28:13;29.33;;;20.50;;
24261;SDS011;12385;51.412;5.540;2024-02-14T07:30:38;34.40;;;21.48;;
24261;SDS011;12385;51.412;5.540;2024-02-14T07:33:04;31.60;;;21.50;;
24261;SDS011;12385;51.412;5.540;2024-02-14T07:35:30;25.25;;;19.90;;
24261;SDS011;12385;51.412;5.540;2024-02-14T07:37:56;29.20;;;19.17;;
24261;SDS011;12385;51.412;5.540;2024-02-14T07:40:22;32.03;;;20.60;;
24261;SDS011;12385;51.412;5.540;2024-02-14T07:42:49;29.88;;;18.83;;
24261;SDS011;12385;51.412;5.540;2024-02-14T07:45:15;28.92;;;17.33;;
24261;SDS011;12385;51.412;5.540;2024-02-14T07:47:42;27.80;;;18.02;;
24261;SDS011;12385;51.412;5.540;2024-02-14T07:50:07;29.45;;;16.33;;
24261;SDS011;12385;51.412;5.540;2024-02-14T07:52:33;23.55;;;15.43;;
24261;SDS011;12385;51.412;5.540;2024-02-14T07:54:59;24.63;;;16.15;;
24261;SDS011;12385;51.412;5.540;2024-02-14T07:57:26;24.52;;;16.13;;
24261;SDS011;12385;51.412;5.540;2024-02-14T07:59:52;23.60;;;14.80;;
24261;SDS011;12385;51.412;5.540;2024-02-14T08:02:20;20.77;;;14.02;;
24261;SDS011;12385;51.412;5.540;2024-02-14T08:04:46;22.83;;;14.40;;
24261;SDS011;12385;51.412;5.540;2024-02-14T08:07:12;22.17;;;14.50;;
24261;SDS011;12385;51.412;5.540;2024-02-14T08:09:38;24.52;;;13.88;;
24261;SDS011;12385;51.412;5.540;2024-02-14T08:12:05;18.27;;;13.75;;
24261;SDS011;12385;51.412;5.540;2024-02-14T08:14:31;23.45;;;13.30;;
24261;SDS011;12385;51.412;5.540;2024-02-14T08:16:57;24.33;;;13.07;;
24261;SDS011;12385;51.412;5.540;2024-02-14T08:19:23;22.92;;;12.57;;
24261;SDS011;12385;51.412;5.540;2024-02-14T08:21:50;24.38;;;13.15;;
24261;SDS011;12385;51.412;5.540;2024-02-14T08:24:16;20.52;;;12.90;;
24261;SDS011;12385;51.412;5.540;2024-02-14T08:26:42;18.98;;;12.15;;
24261;SDS011;12385;51.412;5.540;2024-02-14T08:29:08;18.75;;;11.02;;
24261;SDS011;12385;51.412;5.540;2024-02-14T08:31:36;19.63;;;11.40;;
24261;SDS011;12385;51.412;5.540;2024-02-14T08:34:02;17.10;;;10.40;;
24261;SDS011;12385;51.412;5.540;2024-02-14T08:36:28;17.08;;;10.20;;
24261;SDS011;12385;51.412;5.540;2024-02-14T08:38:53;23.15;;;10.63;;
24261;SDS011;12385;51.412;5.540;2024-02-14T08:41:20;21.63;;;10.70;;
24261;SDS011;12385;51.412;5.540;2024-02-14T08:43:45;23.08;;;10.55;;
24261;SDS011;12385;51.412;5.540;2024-02-14T08:46:11;17.98;;;9.63;;
24261;SDS011;12385;51.412;5.540;2024-02-14T08:48:37;17.45;;;9.25;;
24261;SDS011;12385;51.412;5.540;2024-02-14T08:51:10;18.60;;;9.25;;
24261;SDS011;12385;51.412;5.540;2024-02-14T08:53:37;16.63;;;9.38;;
24261;SDS011;12385;51.412;5.540;2024-02-14T08:56:03;15.82;;;8.82;;
24261;SDS011;12385;51.412;5.540;2024-02-14T08:58:29;16.55;;;8.82;;
24261;SDS011;12385;51.412;5.540;2024-02-14T09:00:54;14.35;;;8.48;;
24261;SDS011;12385;51.412;5.540;2024-02-14T09:03:20;18.13;;;9.02;;
24261;SDS011;12385;51.412;5.540;2024-02-14T09:05:46;14.32;;;8.57;;
24261;SDS011;12385;51.412;5.540;2024-02-14T09:08:12;19.08;;;8.80;;
24261;SDS011;12385;51.412;5.540;2024-02-14T09:10:38;14.30;;;8.45;;
24261;SDS011;12385;51.412;5.540;2024-02-14T09:13:04;20.67;;;9.43;;
24261;SDS011;12385;51.412;5.540;2024-02-14T09:15:32;18.35;;;9.45;;
24261;SDS011;12385;51.412;5.540;2024-02-14T09:17:58;19.20;;;9.20;;
24261;SDS011;12385;51.412;5.540;2024-02-14T09:20:25;22.60;;;9.30;;
24261;SDS011;12385;51.412;5.540;2024-02-14T09:22:51;21.55;;;9.52;;
24261;SDS011;12385;51.412;5.540;2024-02-14T09:25:20;20.73;;;10.57;;
24261;SDS011;12385;51.412;5.540;2024-02-14T09:30:16;16.75;;;9.75;;
24261;SDS011;12385;51.412;5.540;2024-02-14T09:32:43;19.85;;;9.50;;
24261;SDS011;12385;51.412;5.540;2024-02-14T09:35:09;19.17;;;9.45;;
24261;SDS011;12385;51.412;5.540;2024-02-14T09:37:35;16.83;;;9.27;;
24261;SDS011;12385;51.412;5.540;2024-02-14T09:40:03;14.35;;;9.02;;
24261;SDS011;12385;51.412;5.540;2024-02-14T09:45:09;17.02;;;8.70;;
24261;SDS011;12385;51.412;5.540;2024-02-14T09:47:36;17.33;;;8.10;;
24261;SDS011;12385;51.412;5.540;2024-02-14T09:50:05;16.73;;;7.93;;
24261;SDS011;12385;51.412;5.540;2024-02-14T09:52:33;14.35;;;7.88;;
24261;SDS011;12385;51.412;5.540;2024-02-14T09:55:00;13.73;;;7.50;;
24261;SDS011;12385;51.412;5.540;2024-02-14T09:57:28;15.10;;;7.22;;
24261;SDS011;12385;51.412;5.540;2024-02-14T09:59:56;13.80;;;7.88;;
24261;SDS011;12385;51.412;5.540;2024-02-14T10:02:22;12.07;;;7.55;;
24261;SDS011;12385;51.412;5.540;2024-02-14T10:04:50;15.35;;;7.90;;
24261;SDS011;12385;51.412;5.540;2024-02-14T10:07:16;16.05;;;7.90;;
24261;SDS011;12385;51.412;5.540;2024-02-14T10:09:42;11.82;;;8.25;;
24261;SDS011;12385;51.412;5.540;2024-02-14T10:12:08;16.40;;;9.15;;
24261;SDS011;12385;51.412;5.540;2024-02-14T10:14:35;15.13;;;9.30;;
24261;SDS011;12385;51.412;5.540;2024-02-14T10:17:06;14.77;;;9.75;;
24261;SDS011;12385;51.412;5.540;2024-02-14T10:19:34;14.95;;;9.90;;
24261;SDS011;12385;51.412;5.540;2024-02-14T10:22:00;16.30;;;10.35;;
24261;SDS011;12385;51.412;5.540;2024-02-14T10:24:30;15.23;;;10.10;;
24261;SDS011;12385;51.412;5.540;2024-02-14T10:26:58;15.82;;;10.32;;
24261;SDS011;12385;51.412;5.540;2024-02-14T10:29:25;17.58;;;10.48;;
24261;SDS011;12385;51.412;5.540;2024-02-14T10:31:50;18.38;;;10.70;;
24261;SDS011;12385;51.412;5.540;2024-02-14T10:34:18;18.35;;;11.05;;
24261;SDS011;12385;51.412;5.540;2024-02-14T10:36:50;17.75;;;11.15;;
24261;SDS011;12385;51.412;5.540;2024-02-14T10:39:21;13.77;;;10.18;;
24261;SDS011;12385;51.412;5.540;2024-02-14T10:41:50;14.32;;;10.52;;
24261;SDS011;12385;51.412;5.540;2024-02-14T10:44:16;17.83;;;10.75;;
24261;SDS011;12385;51.412;5.540;2024-02-14T10:46:42;13.70;;;10.13;;
24261;SDS011;12385;51.412;5.540;2024-02-14T10:49:11;15.30;;;10.43;;
24261;SDS011;12385;51.412;5.540;2024-02-14T10:51:40;15.23;;;10.60;;
24261;SDS011;12385;51.412;5.540;2024-02-14T10:54:11;16.27;;;10.90;;
24261;SDS011;12385;51.412;5.540;2024-02-14T10:56:38;17.15;;;12.00;;
24261;SDS011;12385;51.412;5.540;2024-02-14T10:59:05;15.98;;;10.75;;
24261;SDS011;12385;51.412;5.540;2024-02-14T11:01:33;16.63;;;10.23;;
24261;SDS011;12385;51.412;5.540;2024-02-14T11:03:59;13.55;;;9.55;;
24261;SDS011;12385;51.412;5.540;2024-02-14T11:06:25;10.13;;;8.52;;
24261;SDS011;12385;51.412;5.540;2024-02-14T11:08:58;10.13;;;8.48;;
24261;SDS011;12385;51.412;5.540;2024-02-14T11:11:29;13.25;;;8.88;;
24261;SDS011;12385;51.412;5.540;2024-02-14T11:13:58;12.55;;;8.18;;
24261;SDS011;12385;51.412;5.540;2024-02-14T11:16:27;11.82;;;7.90;;
24261;SDS011;12385;51.412;5.540;2024-02-14T11:19:05;11.88;;;8.07;;
24261;SDS011;12385;51.412;5.540;2024-02-14T11:21:36;10.73;;;8.43;;
24261;SDS011;12385;51.412;5.540;2024-02-14T11:24:09;10.68;;;8.48;;
24261;SDS011;12385;51.412;5.540;2024-02-14T11:26:50;11.48;;;7.35;;
24261;SDS011;12385;51.412;5.540;2024-02-14T11:29:17;9.30;;;7.10;;
24261;SDS011;12385;51.412;5.540;2024-02-14T11:31:45;9.30;;;6.78;;
24261;SDS011;12385;51.412;5.540;2024-02-14T11:34:14;8.63;;;6.43;;
24261;SDS011;12385;51.412;5.540;2024-02-14T11:39:09;9.52;;;7.25;;
24261;SDS011;12385;51.412;5.540;2024-02-14T11:41:37;8.52;;;7.38;;
24261;SDS011;12385;51.412;5.540;2024-02-14T11:44:06;8.93;;;7.25;;
24261;SDS011;12385;51.412;5.540;2024-02-14T11:46:32;8.40;;;7.28;;
24261;SDS011;12385;51.412;5.540;2024-02-14T11:48:59;12.32;;;7.85;;
24261;SDS011;12385;51.412;5.540;2024-02-14T11:51:31;8.88;;;7.55;;
24261;SDS011;12385;51.412;5.540;2024-02-14T11:54:00;9.18;;;7.75;;
24261;SDS011;12385;51.412;5.540;2024-02-14T11:56:32;8.40;;;7.22;;
24261;SDS011;12385;51.412;5.540;2024-02-14T11:59:03;9.07;;;7.40;;
24261;SDS011;12385;51.412;5.540;2024-02-14T12:01:30;8.73;;;7.20;;
24261;SDS011;12385;51.412;5.540;2024-02-14T12:03:59;8.75;;;6.95;;
24261;SDS011;12385;51.412;5.540;2024-02-14T12:06:26;8.13;;;6.40;;
24261;SDS011;12385;51.412;5.540;2024-02-14T12:08:53;9.02;;;6.50;;
24261;SDS011;12385;51.412;5.540;2024-02-14T12:11:20;6.95;;;6.05;;
24261;SDS011;12385;51.412;5.540;2024-02-14T12:13:50;7.38;;;5.97;;
24261;SDS011;12385;51.412;5.540;2024-02-14T12:16:19;7.50;;;5.60;;
24261;SDS011;12385;51.412;5.540;2024-02-14T12:18:46;7.38;;;5.30;;
24261;SDS011;12385;51.412;5.540;2024-02-14T12:21:14;6.93;;;5.28;;
24261;SDS011;12385;51.412;5.540;2024-02-14T12:23:41;5.53;;;4.80;;
24261;SDS011;12385;51.412;5.540;2024-02-14T12:26:07;5.45;;;4.30;;
24261;SDS011;12385;51.412;5.540;2024-02-14T12:28:34;5.63;;;4.43;;
24261;SDS011;12385;51.412;5.540;2024-02-14T12:31:02;5.95;;;4.40;;
24261;SDS011;12385;51.412;5.540;2024-02-14T12:33:28;7.97;;;4.22;;
24261;SDS011;12385;51.412;5.540;2024-02-14T12:35:55;6.50;;;3.88;;
24261;SDS011;12385;51.412;5.540;2024-02-14T12:38:22;6.53;;;4.25;;
24261;SDS011;12385;51.412;5.540;2024-02-14T12:40:49;5.78;;;4.60;;
24261;SDS011;12385;51.412;5.540;2024-02-14T12:43:19;5.88;;;4.63;;
24261;SDS011;12385;51.412;5.540;2024-02-14T12:45:46;5.00;;;4.50;;
24261;SDS011;12385;51.412;5.540;2024-02-14T12:48:12;6.13;;;5.13;;
24261;SDS011;12385;51.412;5.540;2024-02-14T12:50:39;5.35;;;4.85;;
24261;SDS011;12385;51.412;5.540;2024-02-14T12:53:09;5.05;;;4.40;;
24261;SDS011;12385;51.412;5.540;2024-02-14T12:55:35;5.90;;;4.72;;
24261;SDS011;12385;51.412;5.540;2024-02-14T12:58:01;6.13;;;4.32;;
24261;SDS011;12385;51.412;5.540;2024-02-14T13:00:27;4.30;;;3.88;;
24261;SDS011;12385;51.412;5.540;2024-02-14T13:02:54;5.38;;;4.10;;
24261;SDS011;12385;51.412;5.540;2024-02-14T13:05:20;6.78;;;3.70;;
24261;SDS011;12385;51.412;5.540;2024-02-14T13:07:45;4.63;;;3.80;;
24261;SDS011;12385;51.412;5.540;2024-02-14T13:10:12;4.47;;;3.90;;
24261;SDS011;12385;51.412;5.540;2024-02-14T13:12:38;4.15;;;3.70;;
24261;SDS011;12385;51.412;5.540;2024-02-14T13:15:04;5.95;;;4.15;;
24261;SDS011;12385;51.412;5.540;2024-02-14T13:17:30;4.80;;;3.20;;
24261;SDS011;12385;51.412;5.540;2024-02-14T13:19:56;4.28;;;3.00;;
24261;SDS011;12385;51.412;5.540;2024-02-14T13:22:24;4.65;;;3.30;;
24261;SDS011;12385;51.412;5.540;2024-02-14T13:24:50;4.13;;;3.20;;
24261;SDS011;12385;51.412;5.540;2024-02-14T13:27:16;5.82;;;3.25;;
24261;SDS011;12385;51.412;5.540;2024-02-14T13:29:49;3.92;;;3.10;;
24261;SDS011;12385;51.412;5.540;2024-02-14T13:32:15;4.13;;;3.30;;
24261;SDS011;12385;51.412;5.540;2024-02-14T13:34:41;4.38;;;3.00;;
24261;SDS011;12385;51.412;5.540;2024-02-14T13:37:08;4.95;;;3.20;;
24261;SDS011;12385;51.412;5.540;2024-02-14T13:39:34;3.60;;;3.30;;
24261;SDS011;12385;51.412;5.540;2024-02-14T13:42:00;4.03;;;3.28;;
24261;SDS011;12385;51.412;5.540;2024-02-14T13:44:26;6.90;;;3.50;;
24261;SDS011;12385;51.412;5.540;2024-02-14T13:46:52;8.70;;;3.78;;
24261;SDS011;12385;51.412;5.540;2024-02-14T13:49:19;5.40;;;3.95;;
24261;SDS011;12385;51.412;5.540;2024-02-14T13:51:52;6.07;;;4.70;;
24261;SDS011;12385;51.412;5.540;2024-02-14T13:54:19;5.47;;;4.97;;
24261;SDS011;12385;51.412;5.540;2024-02-14T13:56:45;8.02;;;5.90;;
24261;SDS011;12385;51.412;5.540;2024-02-14T13:59:14;7.77;;;5.70;;
24261;SDS011;12385;51.412;5.540;2024-02-14T14:01:41;7.65;;;5.82;;
24261;SDS011;12385;51.412;5.540;2024-02-14T14:04:07;7.20;;;6.20;;
24261;SDS011;12385;51.412;5.540;2024-02-14T14:06:33;7.95;;;6.15;;
24261;SDS011;12385;51.412;5.540;2024-02-14T14:08:59;8.30;;;6.80;;
24261;SDS011;12385;51.412;5.540;2024-02-14T14:11:27;9.60;;;6.47;;
24261;SDS011;12385;51.412;5.540;2024-02-14T14:13:53;10.82;;;6.50;;
24261;SDS011;12385;51.412;5.540;2024-02-14T14:16:19;8.85;;;6.93;;
24261;SDS011;12385;51.412;5.540;2024-02-14T14:18:46;8.90;;;7.68;;
24261;SDS011;12385;51.412;5.540;2024-02-14T14:21:16;7.70;;;6.90;;
24261;SDS011;12385;51.412;5.540;2024-02-14T14:23:41;7.97;;;6.90;;
24261;SDS011;12385;51.412;5.540;2024-02-14T14:26:07;7.45;;;6.28;;
24261;SDS011;12385;51.412;5.540;2024-02-14T14:28:33;9.63;;;7.28;;
24261;SDS011;12385;51.412;5.540;2024-02-14T14:30:59;11.82;;;9.98;;
24261;SDS011;12385;51.412;5.540;2024-02-14T14:33:26;8.63;;;7.38;;
24261;SDS011;12385;51.412;5.540;2024-02-14T14:35:52;10.32;;;7.85;;
24261;SDS011;12385;51.412;5.540;2024-02-14T14:38:19;9.10;;;7.93;;
24261;SDS011;12385;51.412;5.540;2024-02-14T14:40:46;10.07;;;7.68;;
24261;SDS011;12385;51.412;5.540;2024-02-14T14:43:14;7.88;;;7.10;;